sensor_id;sensor_type;location;lat;lon;timestamp;P1;durP1;ratioP1;P2;durP2;ratioP2
7211;SDS011;3647;48.792;9.802;2023-05-07T05:27:30;2.55;;;2.35;;
7211;SDS011;3647;48.792;9.802;2023-05-07T05:29:57;2.53;;;2.33;;
7211;SDS011;3647;48.792;9.802;2023-05-07T05:32:23;3.38;;;2.47;;
7211;SDS011;3647;48.792;9.802;2023-05-07T05:34:50;2.90;;;2.13;;
7211;SDS011;3647;48.792;9.802;2023-05-07T05:37:17;2.45;;;2.25;;
7211;SDS011;3647;48.792;9.802;2023-05-07T05:39:44;2.50;;;2.30;;
7211;SDS011;3647;48.792;9.802;2023-05-07T05:42:11;2.53;;;2.33;;
7211;SDS011;3647;48.792;9.802;2023-05-07T05:44:40;3.90;;;3.38;;
7211;SDS011;3647;48.792;9.802;2023-05-07T05:47:07;4.60;;;4.15;;
7211;SDS011;3647;48.792;9.802;2023-05-07T05:49:33;2.70;;;2.50;;
7211;SDS011;3647;48.792;9.802;2023-05-07T05:52:01;2.38;;;2.15;;
7211;SDS011;3647;48.792;9.802;2023-05-07T05:54:28;3.38;;;2.60;;
7211;SDS011;3647;48.792;9.802;2023-05-07T05:56:55;3.10;;;2.60;;
7211;SDS011;3647;48.792;9.802;2023-05-07T05:59:22;3.17;;;2.78;;
7211;SDS011;3647;48.792;9.802;2023-05-07T06:01:50;2.60;;;2.40;;
7211;SDS011;3647;48.792;9.802;2023-05-07T06:04:17;3.78;;;2.78;;
7211;SDS011;3647;48.792;9.802;2023-05-07T06:06:44;2.53;;;2.33;;
7211;SDS011;3647;48.792;9.802;2023-05-07T06:09:11;2.72;;;2.53;;
7211;SDS011;3647;48.792;9.802;2023-05-07T06:11:37;3.92;;;2.45;;
7211;SDS011;3647;48.792;9.802;2023-05-07T06:14:06;2.72;;;2.30;;
7211;SDS011;3647;48.792;9.802;2023-05-07T06:16:32;3.00;;;2.70;;
7211;SDS011;3647;48.792;9.802;2023-05-07T06:19:01;3.05;;;2.63;;
7211;SDS011;3647;48.792;9.802;2023-05-07T06:21:27;3.63;;;2.55;;
7211;SDS011;3647;48.792;9.802;2023-05-07T06:23:55;2.75;;;2.55;;
7211;SDS011;3647;48.792;9.802;2023-05-07T06:26:22;2.50;;;2.30;;
7211;SDS011;3647;48.792;9.802;2023-05-07T06:28:49;2.50;;;2.30;;
7211;SDS011;3647;48.792;9.802;2023-05-07T06:31:16;2.50;;;2.30;;
7211;SDS011;3647;48.792;9.802;2023-05-07T06:33:45;3.17;;;2.75;;
7211;SDS011;3647;48.792;9.802;2023-05-07T06:36:14;3.00;;;2.55;;
7211;SDS011;3647;48.792;9.802;2023-05-07T06:38:41;3.90;;;2.40;;
7211;SDS011;3647;48.792;9.802;2023-05-07T06:41:08;2.97;;;2.70;;
7211;SDS011;3647;48.792;9.802;2023-05-07T06:43:35;2.53;;;2.20;;
7211;SDS011;3647;48.792;9.802;2023-05-07T06:46:02;2.67;;;2.25;;
7211;SDS011;3647;48.792;9.802;2023-05-07T06:48:29;4.18;;;2.50;;
7211;SDS011;3647;48.792;9.802;2023-05-07T06:50:56;12.00;;;2.67;;
7211;SDS011;3647;48.792;9.802;2023-05-07T06:53:24;2.92;;;2.30;;
7211;SDS011;3647;48.792;9.802;2023-05-07T06:55:51;2.20;;;2.00;;
7211;SDS011;3647;48.792;9.802;2023-05-07T06:58:19;1.88;;;1.77;;
7211;SDS011;3647;48.792;9.802;2023-05-07T07:00:46;2.60;;;2.25;;
7211;SDS011;3647;48.792;9.802;2023-05-07T07:03:12;3.60;;;2.28;;
7211;SDS011;3647;48.792;9.802;2023-05-07T07:05:40;4.13;;;2.30;;
7211;SDS011;3647;48.792;9.802;2023-05-07T07:08:06;2.58;;;2.38;;
7211;SDS011;3647;48.792;9.802;2023-05-07T07:10:35;3.28;;;2.22;;
7211;SDS011;3647;48.792;9.802;2023-05-07T07:13:01;2.15;;;1.95;;
7211;SDS011;3647;48.792;9.802;2023-05-07T07:15:28;2.47;;;2.28;;
7211;SDS011;3647;48.792;9.802;2023-05-07T07:17:55;3.13;;;2.20;;
7211;SDS011;3647;48.792;9.802;2023-05-07T07:20:22;2.60;;;2.40;;
7211;SDS011;3647;48.792;9.802;2023-05-07T07:22:49;3.80;;;1.90;;
7211;SDS011;3647;48.792;9.802;2023-05-07T07:25:15;2.10;;;1.90;;
7211;SDS011;3647;48.792;9.802;2023-05-07T07:27:44;2.90;;;2.00;;
7211;SDS011;3647;48.792;9.802;2023-05-07T07:30:11;2.63;;;1.83;;
7211;SDS011;3647;48.792;9.802;2023-05-07T07:32:37;2.00;;;1.90;;
7211;SDS011;3647;48.792;9.802;2023-05-07T07:35:05;2.63;;;2.00;;
7211;SDS011;3647;48.792;9.802;2023-05-07T07:37:32;2.13;;;1.70;;
7211;SDS011;3647;48.792;9.802;2023-05-07T07:39:59;2.25;;;2.05;;
7211;SDS011;3647;48.792;9.802;2023-05-07T07:42:26;2.10;;;1.77;;
7211;SDS011;3647;48.792;9.802;2023-05-07T07:44:55;4.10;;;2.25;;
7211;SDS011;3647;48.792;9.802;2023-05-07T07:47:22;1.75;;;1.65;;
7211;SDS011;3647;48.792;9.802;2023-05-07T07:49:49;1.80;;;1.70;;
7211;SDS011;3647;48.792;9.802;2023-05-07T07:52:16;2.92;;;1.60;;
7211;SDS011;3647;48.792;9.802;2023-05-07T07:54:42;1.70;;;1.60;;
7211;SDS011;3647;48.792;9.802;2023-05-07T07:57:10;1.95;;;1.85;;
7211;SDS011;3647;48.792;9.802;2023-05-07T07:59:37;2.58;;;1.83;;
7211;SDS011;3647;48.792;9.802;2023-05-07T08:02:05;1.60;;;1.50;;
7211;SDS011;3647;48.792;9.802;2023-05-07T08:04:32;2.00;;;1.80;;
7211;SDS011;3647;48.792;9.802;2023-05-07T08:06:59;2.25;;;1.95;;
7211;SDS011;3647;48.792;9.802;2023-05-07T08:09:26;1.92;;;1.48;;
7211;SDS011;3647;48.792;9.802;2023-05-07T08:11:52;1.50;;;1.40;;
7211;SDS011;3647;48.792;9.802;2023-05-07T08:14:19;1.65;;;1.50;;
7211;SDS011;3647;48.792;9.802;2023-05-07T08:16:46;1.70;;;1.60;;
7211;SDS011;3647;48.792;9.802;2023-05-07T08:19:15;1.52;;;1.42;;
7211;SDS011;3647;48.792;9.802;2023-05-07T08:21:41;1.48;;;1.38;;
7211;SDS011;3647;48.792;9.802;2023-05-07T08:24:08;1.10;;;1.10;;
7211;SDS011;3647;48.792;9.802;2023-05-07T08:26:35;1.40;;;1.30;;
7211;SDS011;3647;48.792;9.802;2023-05-07T08:29:04;1.33;;;1.23;;
7211;SDS011;3647;48.792;9.802;2023-05-07T08:31:30;1.35;;;1.25;;
7211;SDS011;3647;48.792;9.802;2023-05-07T08:33:58;1.80;;;1.30;;
7211;SDS011;3647;48.792;9.802;2023-05-07T08:36:26;1.40;;;1.30;;
7211;SDS011;3647;48.792;9.802;2023-05-07T08:38:53;1.95;;;1.45;;
7211;SDS011;3647;48.792;9.802;2023-05-07T08:41:20;1.40;;;1.30;;
7211;SDS011;3647;48.792;9.802;2023-05-07T08:43:47;2.85;;;1.15;;
7211;SDS011;3647;48.792;9.802;2023-05-07T08:46:16;1.50;;;1.40;;
7211;SDS011;3647;48.792;9.802;2023-05-07T08:48:45;1.40;;;1.30;;
7211;SDS011;3647;48.792;9.802;2023-05-07T08:51:15;1.48;;;1.38;;
7211;SDS011;3647;48.792;9.802;2023-05-07T08:53:45;1.40;;;1.30;;
7211;SDS011;3647;48.792;9.802;2023-05-07T08:56:13;1.60;;;1.50;;
7211;SDS011;3647;48.792;9.802;2023-05-07T08:58:41;1.50;;;1.27;;
7211;SDS011;3647;48.792;9.802;2023-05-07T09:01:08;1.70;;;1.60;;
7211;SDS011;3647;48.792;9.802;2023-05-07T09:03:36;2.35;;;1.42;;
7211;SDS011;3647;48.792;9.802;2023-05-07T09:06:04;1.20;;;1.10;;
7211;SDS011;3647;48.792;9.802;2023-05-07T09:08:32;1.50;;;1.40;;
7211;SDS011;3647;48.792;9.802;2023-05-07T09:11:01;3.70;;;1.40;;
7211;SDS011;3647;48.792;9.802;2023-05-07T09:13:28;1.42;;;1.30;;
7211;SDS011;3647;48.792;9.802;2023-05-07T09:15:55;3.22;;;1.10;;
7211;SDS011;3647;48.792;9.802;2023-05-07T09:18:23;3.28;;;1.40;;
7211;SDS011;3647;48.792;9.802;2023-05-07T09:20:50;1.80;;;1.40;;
7211;SDS011;3647;48.792;9.802;2023-05-07T09:23:17;1.65;;;1.20;;
7211;SDS011;3647;48.792;9.802;2023-05-07T09:25:43;1.80;;;1.13;;
7211;SDS011;3647;48.792;9.802;2023-05-07T09:28:11;1.25;;;1.15;;
7211;SDS011;3647;48.792;9.802;2023-05-07T09:30:38;2.53;;;1.27;;
7211;SDS011;3647;48.792;9.802;2023-05-07T09:33:05;1.27;;;1.17;;
7211;SDS011;3647;48.792;9.802;2023-05-07T09:35:32;1.00;;;1.00;;
7211;SDS011;3647;48.792;9.802;2023-05-07T09:37:59;0.90;;;0.90;;
7211;SDS011;3647;48.792;9.802;2023-05-07T09:40:28;1.95;;;0.90;;
7211;SDS011;3647;48.792;9.802;2023-05-07T09:43:07;0.98;;;0.90;;
7211;SDS011;3647;48.792;9.802;2023-05-07T09:45:36;1.23;;;1.13;;
7211;SDS011;3647;48.792;9.802;2023-05-07T09:48:04;1.20;;;1.00;;
7211;SDS011;3647;48.792;9.802;2023-05-07T09:50:34;0.98;;;0.98;;
7211;SDS011;3647;48.792;9.802;2023-05-07T09:53:03;1.15;;;0.90;;
7211;SDS011;3647;48.792;9.802;2023-05-07T09:55:30;1.25;;;1.00;;
7211;SDS011;3647;48.792;9.802;2023-05-07T09:57:57;0.90;;;0.90;;
7211;SDS011;3647;48.792;9.802;2023-05-07T10:00:27;1.45;;;1.25;;
7211;SDS011;3647;48.792;9.802;2023-05-07T10:02:57;1.63;;;1.40;;
7211;SDS011;3647;48.792;9.802;2023-05-07T10:05:24;1.38;;;1.10;;
7211;SDS011;3647;48.792;9.802;2023-05-07T10:07:52;1.90;;;1.10;;
7211;SDS011;3647;48.792;9.802;2023-05-07T10:10:20;2.33;;;1.33;;
7211;SDS011;3647;48.792;9.802;2023-05-07T10:12:48;1.48;;;1.30;;
7211;SDS011;3647;48.792;9.802;2023-05-07T10:15:16;3.25;;;1.60;;
7211;SDS011;3647;48.792;9.802;2023-05-07T10:17:44;0.90;;;0.90;;
7211;SDS011;3647;48.792;9.802;2023-05-07T10:20:12;1.08;;;1.00;;
7211;SDS011;3647;48.792;9.802;2023-05-07T10:22:41;1.55;;;1.45;;
7211;SDS011;3647;48.792;9.802;2023-05-07T10:25:13;1.50;;;1.40;;
7211;SDS011;3647;48.792;9.802;2023-05-07T10:27:42;1.50;;;1.40;;
7211;SDS011;3647;48.792;9.802;2023-05-07T10:30:12;1.85;;;1.30;;
7211;SDS011;3647;48.792;9.802;2023-05-07T10:32:47;1.05;;;1.00;;
7211;SDS011;3647;48.792;9.802;2023-05-07T10:35:17;1.33;;;1.23;;
7211;SDS011;3647;48.792;9.802;2023-05-07T10:37:47;1.55;;;1.40;;
7211;SDS011;3647;48.792;9.802;2023-05-07T10:40:14;1.35;;;1.25;;
7211;SDS011;3647;48.792;9.802;2023-05-07T10:42:52;1.50;;;1.38;;
7211;SDS011;3647;48.792;9.802;2023-05-07T10:45:21;1.30;;;1.20;;
7211;SDS011;3647;48.792;9.802;2023-05-07T10:48:07;2.00;;;1.33;;
7211;SDS011;3647;48.792;9.802;2023-05-07T10:50:39;4.35;;;2.60;;
7211;SDS011;3647;48.792;9.802;2023-05-07T10:53:21;2.28;;;1.63;;
7211;SDS011;3647;48.792;9.802;2023-05-07T10:55:51;2.05;;;1.70;;
7211;SDS011;3647;48.792;9.802;2023-05-07T10:58:40;2.97;;;1.42;;
7211;SDS011;3647;48.792;9.802;2023-05-07T11:01:07;1.85;;;1.58;;
7211;SDS011;3647;48.792;9.802;2023-05-07T11:03:35;1.80;;;1.30;;
7211;SDS011;3647;48.792;9.802;2023-05-07T11:06:08;2.33;;;1.40;;
7211;SDS011;3647;48.792;9.802;2023-05-07T11:08:54;2.03;;;1.50;;
7211;SDS011;3647;48.792;9.802;2023-05-07T11:14:12;1.10;;;1.10;;
7211;SDS011;3647;48.792;9.802;2023-05-07T11:16:39;1.75;;;1.27;;
7211;SDS011;3647;48.792;9.802;2023-05-07T11:19:07;1.27;;;1.17;;
7211;SDS011;3647;48.792;9.802;2023-05-07T11:21:34;1.40;;;1.30;;
7211;SDS011;3647;48.792;9.802;2023-05-07T11:24:02;1.50;;;1.40;;
7211;SDS011;3647;48.792;9.802;2023-05-07T11:26:30;1.30;;;1.20;;
7211;SDS011;3647;48.792;9.802;2023-05-07T11:29:11;2.45;;;1.30;;
7211;SDS011;3647;48.792;9.802;2023-05-07T11:31:39;1.33;;;1.23;;
7211;SDS011;3647;48.792;9.802;2023-05-07T11:34:06;1.52;;;1.42;;
7211;SDS011;3647;48.792;9.802;2023-05-07T11:36:33;2.00;;;1.15;;
7211;SDS011;3647;48.792;9.802;2023-05-07T11:39:00;3.90;;;1.17;;
7211;SDS011;3647;48.792;9.802;2023-05-07T11:41:33;1.55;;;1.30;;
7211;SDS011;3647;48.792;9.802;2023-05-07T11:44:01;1.50;;;1.40;;
7211;SDS011;3647;48.792;9.802;2023-05-07T11:46:30;2.10;;;1.35;;
7211;SDS011;3647;48.792;9.802;2023-05-07T11:48:56;2.03;;;1.13;;
7211;SDS011;3647;48.792;9.802;2023-05-07T11:51:24;1.33;;;1.20;;
7211;SDS011;3647;48.792;9.802;2023-05-07T11:53:52;1.98;;;1.35;;
7211;SDS011;3647;48.792;9.802;2023-05-07T11:56:19;2.40;;;1.30;;
7211;SDS011;3647;48.792;9.802;2023-05-07T11:58:47;1.50;;;1.40;;
7211;SDS011;3647;48.792;9.802;2023-05-07T12:01:14;1.35;;;1.25;;
7211;SDS011;3647;48.792;9.802;2023-05-07T12:03:45;1.70;;;1.60;;
7211;SDS011;3647;48.792;9.802;2023-05-07T12:06:12;1.70;;;1.60;;
7211;SDS011;3647;48.792;9.802;2023-05-07T12:08:41;1.77;;;1.45;;
7211;SDS011;3647;48.792;9.802;2023-05-07T12:11:09;1.67;;;1.58;;
7211;SDS011;3647;48.792;9.802;2023-05-07T12:13:38;1.40;;;1.30;;
7211;SDS011;3647;48.792;9.802;2023-05-07T12:16:05;1.40;;;1.30;;
7211;SDS011;3647;48.792;9.802;2023-05-07T12:18:33;1.42;;;1.33;;
7211;SDS011;3647;48.792;9.802;2023-05-07T12:21:03;1.73;;;1.40;;
7211;SDS011;3647;48.792;9.802;2023-05-07T12:23:31;1.38;;;1.23;;
7211;SDS011;3647;48.792;9.802;2023-05-07T12:25:59;1.77;;;1.40;;
7211;SDS011;3647;48.792;9.802;2023-05-07T12:28:26;2.05;;;1.45;;
7211;SDS011;3647;48.792;9.802;2023-05-07T12:30:53;1.60;;;1.50;;
7211;SDS011;3647;48.792;9.802;2023-05-07T12:33:23;1.63;;;1.52;;
7211;SDS011;3647;48.792;9.802;2023-05-07T12:35:52;1.55;;;1.15;;
7211;SDS011;3647;48.792;9.802;2023-05-07T12:38:22;1.30;;;1.20;;
7211;SDS011;3647;48.792;9.802;2023-05-07T12:40:49;1.10;;;1.05;;
7211;SDS011;3647;48.792;9.802;2023-05-07T12:43:19;2.28;;;1.40;;
7211;SDS011;3647;48.792;9.802;2023-05-07T12:45:47;1.67;;;1.40;;
7211;SDS011;3647;48.792;9.802;2023-05-07T12:48:15;2.13;;;1.40;;
7211;SDS011;3647;48.792;9.802;2023-05-07T12:50:43;1.40;;;1.30;;
7211;SDS011;3647;48.792;9.802;2023-05-07T12:53:10;2.72;;;1.60;;
7211;SDS011;3647;48.792;9.802;2023-05-07T12:55:43;2.38;;;1.40;;
7211;SDS011;3647;48.792;9.802;2023-05-07T12:58:14;1.60;;;1.50;;
7211;SDS011;3647;48.792;9.802;2023-05-07T13:00:42;1.30;;;1.30;;
7211;SDS011;3647;48.792;9.802;2023-05-07T13:03:10;1.48;;;1.38;;
7211;SDS011;3647;48.792;9.802;2023-05-07T13:05:37;2.05;;;1.58;;
7211;SDS011;3647;48.792;9.802;2023-05-07T13:08:04;2.03;;;1.52;;
7211;SDS011;3647;48.792;9.802;2023-05-07T13:10:31;1.80;;;1.67;;
7211;SDS011;3647;48.792;9.802;2023-05-07T13:13:00;1.55;;;1.45;;
7211;SDS011;3647;48.792;9.802;2023-05-07T13:15:27;1.38;;;1.27;;
7211;SDS011;3647;48.792;9.802;2023-05-07T13:17:53;1.65;;;1.48;;
7211;SDS011;3647;48.792;9.802;2023-05-07T13:20:20;1.77;;;1.30;;
7211;SDS011;3647;48.792;9.802;2023-05-07T13:22:47;1.60;;;1.45;;
7211;SDS011;3647;48.792;9.802;2023-05-07T13:25:14;2.13;;;1.50;;
7211;SDS011;3647;48.792;9.802;2023-05-07T13:27:41;1.30;;;1.20;;
7211;SDS011;3647;48.792;9.802;2023-05-07T13:30:10;2.35;;;1.50;;
7211;SDS011;3647;48.792;9.802;2023-05-07T13:32:36;1.80;;;1.45;;
7211;SDS011;3647;48.792;9.802;2023-05-07T13:35:03;1.90;;;1.38;;
7211;SDS011;3647;48.792;9.802;2023-05-07T13:37:31;2.10;;;1.55;;
7211;SDS011;3647;48.792;9.802;2023-05-07T13:39:58;1.92;;;1.50;;
7211;SDS011;3647;48.792;9.802;2023-05-07T13:42:25;2.40;;;1.50;;
7211;SDS011;3647;48.792;9.802;2023-05-07T13:44:52;1.85;;;1.33;;
7211;SDS011;3647;48.792;9.802;2023-05-07T13:47:20;1.60;;;1.50;;
7211;SDS011;3647;48.792;9.802;2023-05-07T13:49:47;2.40;;;1.75;;
7211;SDS011;3647;48.792;9.802;2023-05-07T13:52:14;1.88;;;1.67;;
7211;SDS011;3647;48.792;9.802;2023-05-07T13:54:41;1.58;;;1.48;;
7211;SDS011;3647;48.792;9.802;2023-05-07T13:57:08;2.03;;;1.50;;
7211;SDS011;3647;48.792;9.802;2023-05-07T13:59:35;1.92;;;1.80;;
7211;SDS011;3647;48.792;9.802;2023-05-07T14:02:01;1.70;;;1.60;;
7211;SDS011;3647;48.792;9.802;2023-05-07T14:04:30;1.65;;;1.38;;
7211;SDS011;3647;48.792;9.802;2023-05-07T14:06:57;1.63;;;1.52;;
7211;SDS011;3647;48.792;9.802;2023-05-07T14:09:23;2.17;;;1.42;;
7211;SDS011;3647;48.792;9.802;2023-05-07T14:11:50;1.50;;;1.40;;
7211;SDS011;3647;48.792;9.802;2023-05-07T14:14:17;1.42;;;1.33;;
7211;SDS011;3647;48.792;9.802;2023-05-07T14:16:44;1.70;;;1.60;;
7211;SDS011;3647;48.792;9.802;2023-05-07T14:19:11;2.15;;;1.50;;
7211;SDS011;3647;48.792;9.802;2023-05-07T14:21:39;5.53;;;1.80;;
7211;SDS011;3647;48.792;9.802;2023-05-07T14:24:06;1.48;;;1.35;;
7211;SDS011;3647;48.792;9.802;2023-05-07T14:26:33;1.90;;;1.65;;
7211;SDS011;3647;48.792;9.802;2023-05-07T14:29:00;1.60;;;1.50;;
7211;SDS011;3647;48.792;9.802;2023-05-07T14:31:27;2.55;;;1.85;;
7211;SDS011;3647;48.792;9.802;2023-05-07T14:33:54;1.50;;;1.40;;
7211;SDS011;3647;48.792;9.802;2023-05-07T14:36:22;1.40;;;1.30;;
7211;SDS011;3647;48.792;9.802;2023-05-07T14:38:52;1.83;;;1.65;;
7211;SDS011;3647;48.792;9.802;2023-05-07T14:41:19;2.58;;;1.98;;
7211;SDS011;3647;48.792;9.802;2023-05-07T14:43:47;3.42;;;1.52;;
7211;SDS011;3647;48.792;9.802;2023-05-07T14:46:15;1.98;;;1.48;;
7211;SDS011;3647;48.792;9.802;2023-05-07T14:48:43;2.10;;;1.50;;
7211;SDS011;3647;48.792;9.802;2023-05-07T14:51:11;1.50;;;1.40;;
7211;SDS011;3647;48.792;9.802;2023-05-07T14:53:38;1.85;;;1.75;;
7211;SDS011;3647;48.792;9.802;2023-05-07T14:56:06;1.77;;;1.40;;
7211;SDS011;3647;48.792;9.802;2023-05-07T14:58:34;1.67;;;1.40;;
7211;SDS011;3647;48.792;9.802;2023-05-07T15:01:01;1.50;;;1.40;;
7211;SDS011;3647;48.792;9.802;2023-05-07T15:03:28;1.50;;;1.40;;
7211;SDS011;3647;48.792;9.802;2023-05-07T15:05:55;1.35;;;1.25;;
7211;SDS011;3647;48.792;9.802;2023-05-07T15:08:22;1.58;;;1.40;;
7211;SDS011;3647;48.792;9.802;2023-05-07T15:10:48;2.28;;;1.60;;
7211;SDS011;3647;48.792;9.802;2023-05-07T15:13:17;1.90;;;1.30;;
7211;SDS011;3647;48.792;9.802;2023-05-07T15:15:44;2.30;;;1.55;;
7211;SDS011;3647;48.792;9.802;2023-05-07T15:18:11;1.98;;;1.80;;
7211;SDS011;3647;48.792;9.802;2023-05-07T15:20:38;1.30;;;1.20;;
7211;SDS011;3647;48.792;9.802;2023-05-07T15:23:05;1.23;;;1.13;;
7211;SDS011;3647;48.792;9.802;2023-05-07T15:25:34;1.30;;;1.20;;
7211;SDS011;3647;48.792;9.802;2023-05-07T15:28:02;1.20;;;1.00;;
7211;SDS011;3647;48.792;9.802;2023-05-07T15:30:30;1.33;;;1.00;;
7211;SDS011;3647;48.792;9.802;2023-05-07T15:32:57;1.70;;;0.90;;
7211;SDS011;3647;48.792;9.802;2023-05-07T15:35:24;1.27;;;1.17;;
7211;SDS011;3647;48.792;9.802;2023-05-07T15:37:51;0.95;;;0.95;;
7211;SDS011;3647;48.792;9.802;2023-05-07T15:40:18;1.58;;;1.30;;
7211;SDS011;3647;48.792;9.802;2023-05-07T15:42:46;3.00;;;1.10;;
7211;SDS011;3647;48.792;9.802;2023-05-07T15:45:13;1.40;;;1.30;;
7211;SDS011;3647;48.792;9.802;2023-05-07T15:47:41;1.00;;;1.00;;
7211;SDS011;3647;48.792;9.802;2023-05-07T15:50:08;1.52;;;1.10;;
7211;SDS011;3647;48.792;9.802;2023-05-07T15:52:35;1.55;;;1.30;;
7211;SDS011;3647;48.792;9.802;2023-05-07T15:55:03;1.02;;;1.02;;
7211;SDS011;3647;48.792;9.802;2023-05-07T15:57:31;1.33;;;1.23;;
7211;SDS011;3647;48.792;9.802;2023-05-07T15:59:58;1.00;;;1.00;;
7211;SDS011;3647;48.792;9.802;2023-05-07T16:02:25;1.02;;;1.00;;
7211;SDS011;3647;48.792;9.802;2023-05-07T16:04:53;2.85;;;1.70;;
7211;SDS011;3647;48.792;9.802;2023-05-07T16:07:20;1.77;;;1.67;;
7211;SDS011;3647;48.792;9.802;2023-05-07T16:09:47;1.10;;;1.10;;
7211;SDS011;3647;48.792;9.802;2023-05-07T16:12:14;2.63;;;1.20;;
7211;SDS011;3647;48.792;9.802;2023-05-07T16:14:42;1.85;;;1.75;;
7211;SDS011;3647;48.792;9.802;2023-05-07T16:17:08;1.52;;;1.42;;
7211;SDS011;3647;48.792;9.802;2023-05-07T16:19:35;2.30;;;2.20;;
7211;SDS011;3647;48.792;9.802;2023-05-07T16:22:03;2.08;;;1.50;;
7211;SDS011;3647;48.792;9.802;2023-05-07T16:24:31;2.28;;;1.65;;
7211;SDS011;3647;48.792;9.802;2023-05-07T16:26:57;2.45;;;1.80;;
7211;SDS011;3647;48.792;9.802;2023-05-07T16:29:24;2.97;;;1.90;;
7211;SDS011;3647;48.792;9.802;2023-05-07T16:31:52;3.25;;;2.08;;
7211;SDS011;3647;48.792;9.802;2023-05-07T16:37:42;2.80;;;2.00;;
7211;SDS011;3647;48.792;9.802;2023-05-07T16:40:09;2.92;;;1.83;;
7211;SDS011;3647;48.792;9.802;2023-05-07T16:42:36;2.70;;;1.73;;
7211;SDS011;3647;48.792;9.802;2023-05-07T16:45:04;3.33;;;1.70;;
7211;SDS011;3647;48.792;9.802;2023-05-07T16:47:31;2.88;;;1.80;;
7211;SDS011;3647;48.792;9.802;2023-05-07T16:49:58;2.50;;;1.77;;
7211;SDS011;3647;48.792;9.802;2023-05-07T16:52:25;1.90;;;1.80;;
7211;SDS011;3647;48.792;9.802;2023-05-07T16:54:53;2.28;;;2.05;;
7211;SDS011;3647;48.792;9.802;2023-05-07T16:57:24;2.17;;;1.95;;
7211;SDS011;3647;48.792;9.802;2023-05-07T16:59:51;1.65;;;1.55;;
7211;SDS011;3647;48.792;9.802;2023-05-07T17:02:20;2.33;;;1.83;;
7211;SDS011;3647;48.792;9.802;2023-05-07T17:04:47;2.22;;;1.70;;
7211;SDS011;3647;48.792;9.802;2023-05-07T17:07:14;3.92;;;2.10;;
7211;SDS011;3647;48.792;9.802;2023-05-07T17:09:41;2.83;;;1.98;;
7211;SDS011;3647;48.792;9.802;2023-05-07T17:12:09;2.25;;;1.80;;
7211;SDS011;3647;48.792;9.802;2023-05-07T17:14:36;1.92;;;1.75;;
7211;SDS011;3647;48.792;9.802;2023-05-07T17:17:03;2.35;;;2.15;;
7211;SDS011;3647;48.792;9.802;2023-05-07T17:19:29;3.25;;;2.00;;
7211;SDS011;3647;48.792;9.802;2023-05-07T17:21:56;2.67;;;1.90;;
7211;SDS011;3647;48.792;9.802;2023-05-07T17:24:23;3.30;;;1.95;;
7211;SDS011;3647;48.792;9.802;2023-05-07T17:26:50;1.92;;;1.60;;
7211;SDS011;3647;48.792;9.802;2023-05-07T17:29:18;2.13;;;1.92;;
7211;SDS011;3647;48.792;9.802;2023-05-07T17:31:45;2.47;;;1.90;;
7211;SDS011;3647;48.792;9.802;2023-05-07T17:34:12;3.55;;;2.50;;
7211;SDS011;3647;48.792;9.802;2023-05-07T17:36:39;2.72;;;2.30;;
7211;SDS011;3647;48.792;9.802;2023-05-07T17:39:06;2.63;;;2.42;;
7211;SDS011;3647;48.792;9.802;2023-05-07T17:41:33;2.78;;;2.30;;
7211;SDS011;3647;48.792;9.802;2023-05-07T17:44:00;5.35;;;3.42;;
7211;SDS011;3647;48.792;9.802;2023-05-07T17:46:29;3.40;;;3.10;;
7211;SDS011;3647;48.792;9.802;2023-05-07T17:48:56;3.25;;;2.35;;
7211;SDS011;3647;48.792;9.802;2023-05-07T17:51:23;2.63;;;2.22;;
7211;SDS011;3647;48.792;9.802;2023-05-07T17:53:51;2.70;;;2.50;;
7211;SDS011;3647;48.792;9.802;2023-05-07T17:56:18;2.33;;;1.83;;
7211;SDS011;3647;48.792;9.802;2023-05-07T17:58:45;2.50;;;2.30;;
7211;SDS011;3647;48.792;9.802;2023-05-07T18:01:12;3.00;;;2.47;;
7211;SDS011;3647;48.792;9.802;2023-05-07T18:03:40;2.63;;;2.42;;
7211;SDS011;3647;48.792;9.802;2023-05-07T18:06:07;4.63;;;2.50;;
7211;SDS011;3647;48.792;9.802;2023-05-07T18:08:34;3.78;;;2.30;;
7211;SDS011;3647;48.792;9.802;2023-05-07T18:11:01;2.42;;;2.22;;
7211;SDS011;3647;48.792;9.802;2023-05-07T18:13:29;2.80;;;2.50;;
7211;SDS011;3647;48.792;9.802;2023-05-07T18:15:57;4.03;;;2.28;;
7211;SDS011;3647;48.792;9.802;2023-05-07T18:18:24;2.65;;;2.30;;
7211;SDS011;3647;48.792;9.802;2023-05-07T18:20:56;2.40;;;1.92;;
7211;SDS011;3647;48.792;9.802;2023-05-07T18:23:23;5.82;;;2.97;;
7211;SDS011;3647;48.792;9.802;2023-05-07T18:25:50;2.60;;;2.17;;
7211;SDS011;3647;48.792;9.802;2023-05-07T18:28:17;2.50;;;2.30;;
7211;SDS011;3647;48.792;9.802;2023-05-07T18:30:44;2.72;;;2.35;;
7211;SDS011;3647;48.792;9.802;2023-05-07T18:33:12;2.58;;;2.38;;
7211;SDS011;3647;48.792;9.802;2023-05-07T18:35:38;3.80;;;2.38;;
7211;SDS011;3647;48.792;9.802;2023-05-07T18:38:07;2.63;;;2.03;;
7211;SDS011;3647;48.792;9.802;2023-05-07T18:40:33;2.47;;;2.28;;
7211;SDS011;3647;48.792;9.802;2023-05-07T18:43:00;3.60;;;2.50;;
7211;SDS011;3647;48.792;9.802;2023-05-07T18:45:30;2.78;;;2.40;;
7211;SDS011;3647;48.792;9.802;2023-05-07T18:47:58;2.40;;;2.20;;
7211;SDS011;3647;48.792;9.802;2023-05-07T18:50:25;5.25;;;2.60;;
7211;SDS011;3647;48.792;9.802;2023-05-07T18:52:52;2.67;;;2.47;;
7211;SDS011;3647;48.792;9.802;2023-05-07T18:55:21;2.17;;;2.03;;
7211;SDS011;3647;48.792;9.802;2023-05-07T18:57:47;2.08;;;1.88;;
7211;SDS011;3647;48.792;9.802;2023-05-07T19:00:15;2.33;;;2.13;;
7211;SDS011;3647;48.792;9.802;2023-05-07T19:02:42;2.92;;;2.13;;
7211;SDS011;3647;48.792;9.802;2023-05-07T19:05:09;2.60;;;2.10;;
7211;SDS011;3647;48.792;9.802;2023-05-07T19:07:35;2.67;;;2.22;;
7211;SDS011;3647;48.792;9.802;2023-05-07T19:10:02;4.30;;;2.20;;
7211;SDS011;3647;48.792;9.802;2023-05-07T19:12:31;4.22;;;2.20;;
7211;SDS011;3647;48.792;9.802;2023-05-07T19:14:58;2.63;;;2.42;;
7211;SDS011;3647;48.792;9.802;2023-05-07T19:17:24;2.33;;;2.10;;
7211;SDS011;3647;48.792;9.802;2023-05-07T19:19:51;3.47;;;2.50;;
7211;SDS011;3647;48.792;9.802;2023-05-07T19:22:19;3.15;;;2.55;;
7211;SDS011;3647;48.792;9.802;2023-05-07T19:24:46;4.18;;;2.70;;
7211;SDS011;3647;48.792;9.802;2023-05-07T19:27:13;2.97;;;2.63;;
7211;SDS011;3647;48.792;9.802;2023-05-07T19:29:41;3.75;;;2.70;;
7211;SDS011;3647;48.792;9.802;2023-05-07T19:32:08;2.92;;;2.58;;
7211;SDS011;3647;48.792;9.802;2023-05-07T19:34:35;2.40;;;2.20;;
7211;SDS011;3647;48.792;9.802;2023-05-07T19:37:02;2.78;;;2.08;;
7211;SDS011;3647;48.792;9.802;2023-05-07T19:39:29;2.38;;;2.17;;
7211;SDS011;3647;48.792;9.802;2023-05-07T19:41:56;2.45;;;2.25;;
7211;SDS011;3647;48.792;9.802;2023-05-07T19:44:22;2.70;;;2.50;;
7211;SDS011;3647;48.792;9.802;2023-05-07T19:46:51;5.00;;;2.22;;
7211;SDS011;3647;48.792;9.802;2023-05-07T19:49:18;2.40;;;2.00;;
7211;SDS011;3647;48.792;9.802;2023-05-07T19:51:44;2.45;;;2.25;;
7211;SDS011;3647;48.792;9.802;2023-05-07T19:54:11;2.53;;;2.17;;
7211;SDS011;3647;48.792;9.802;2023-05-07T19:56:38;2.85;;;2.65;;
7211;SDS011;3647;48.792;9.802;2023-05-07T19:59:05;2.55;;;2.35;;
7211;SDS011;3647;48.792;9.802;2023-05-07T20:01:32;2.85;;;2.65;;
7211;SDS011;3647;48.792;9.802;2023-05-07T20:04:01;3.67;;;2.80;;
7211;SDS011;3647;48.792;9.802;2023-05-07T20:06:28;4.15;;;3.38;;
7211;SDS011;3647;48.792;9.802;2023-05-07T20:08:55;2.90;;;2.70;;
7211;SDS011;3647;48.792;9.802;2023-05-07T20:11:22;3.50;;;3.20;;
7211;SDS011;3647;48.792;9.802;2023-05-07T20:13:49;3.42;;;3.13;;
7211;SDS011;3647;48.792;9.802;2023-05-07T20:16:16;3.42;;;3.13;;
7211;SDS011;3647;48.792;9.802;2023-05-07T20:18:43;3.58;;;2.90;;
7211;SDS011;3647;48.792;9.802;2023-05-07T20:21:11;3.95;;;3.22;;
7211;SDS011;3647;48.792;9.802;2023-05-07T20:23:38;3.13;;;2.80;;
7211;SDS011;3647;48.792;9.802;2023-05-07T20:26:05;3.40;;;3.10;;
7211;SDS011;3647;48.792;9.802;2023-05-07T20:28:32;3.40;;;3.08;;
7211;SDS011;3647;48.792;9.802;2023-05-07T20:30:59;4.82;;;3.08;;
7211;SDS011;3647;48.792;9.802;2023-05-07T20:33:26;3.38;;;3.10;;
7211;SDS011;3647;48.792;9.802;2023-05-07T20:35:53;4.60;;;3.35;;
7211;SDS011;3647;48.792;9.802;2023-05-07T20:38:21;3.28;;;2.95;;
7211;SDS011;3647;48.792;9.802;2023-05-07T20:40:48;4.00;;;3.60;;
7211;SDS011;3647;48.792;9.802;2023-05-07T20:43:14;5.15;;;3.08;;
7211;SDS011;3647;48.792;9.802;2023-05-07T20:45:41;3.38;;;3.08;;
7211;SDS011;3647;48.792;9.802;2023-05-07T20:48:08;3.70;;;3.40;;
7211;SDS011;3647;48.792;9.802;2023-05-07T20:50:35;4.68;;;3.30;;